Time;durP1;ratioP1;P1;durP2;ratioP2;P2;SDS_P1;SDS_P2;PMS_P1;PMS_P2;Temp;Humidity;BMP_temperature;BMP_pressure;BME280_temperature;BME280_humidity;BME280_pressure;Samples;Min_cycle;Max_cycle;Signal;HPM_P1;HPM_P2
2021/03/12 00:02:22;;;;;;;1.02;0.40;;;;;;;4.34;87.13;95672.81;5050009;28;20139;-70
2021/03/12 00:04:48;;;;;;;0.88;0.45;;;;;;;4.40;87.22;95678.91;5051115;28;20045;-70
2021/03/12 00:07:14;;;;;;;0.68;0.40;;;;;;;4.42;87.24;95680.19;5049918;28;20419;-70
2021/03/12 00:09:40;;;;;;;1.45;0.40;;;;;;;4.47;86.99;95697.38;5051458;28;20045;-70
2021/03/12 00:12:09;;;;;;;1.05;0.40;;;;;;;4.40;86.13;95685.09;5049748;28;20045;-70
2021/03/12 00:14:36;;;;;;;0.77;0.40;;;;;;;4.34;85.85;95688.19;5051188;28;20477;-70
2021/03/12 00:17:02;;;;;;;0.55;0.40;;;;;;;4.28;86.18;95673.97;5049662;28;20055;-71
2021/03/12 00:19:28;;;;;;;0.93;0.40;;;;;;;4.26;86.16;95683.44;5050261;28;20574;-69
2021/03/12 00:21:54;;;;;;;0.43;0.30;;;;;;;4.31;86.22;95705.72;5050531;28;20045;-69
2021/03/12 00:24:21;;;;;;;0.35;0.30;;;;;;;4.31;85.73;95700.34;5050176;28;20052;-69
2021/03/12 00:26:47;;;;;;;2.00;0.50;;;;;;;4.29;85.62;95697.13;5050719;28;20060;-69
2021/03/12 00:29:13;;;;;;;0.25;0.25;;;;;;;4.30;85.21;95690.66;5049407;28;20045;-69
2021/03/12 00:31:40;;;;;;;1.63;0.30;;;;;;;4.29;85.14;95701.72;5051070;28;20044;-69
2021/03/12 00:34:06;;;;;;;0.75;0.28;;;;;;;4.34;85.09;95705.16;5049487;28;20045;-70
2021/03/12 00:36:32;;;;;;;2.70;0.40;;;;;;;4.40;84.91;95698.56;5051029;28;20538;-69
2021/03/12 00:38:58;;;;;;;0.32;0.30;;;;;;;4.47;84.87;95702.78;5049792;28;20041;-69
2021/03/12 00:41:24;;;;;;;0.60;0.30;;;;;;;4.47;84.35;95708.19;5050326;28;20045;-69
2021/03/12 00:43:50;;;;;;;0.50;0.25;;;;;;;4.48;84.54;95715.16;5049623;28;20140;-69
2021/03/12 00:46:16;;;;;;;0.93;0.30;;;;;;;4.52;83.80;95716.19;5036069;28;20420;-69
2021/03/12 00:48:43;;;;;;;0.30;0.20;;;;;;;4.54;83.88;95730.16;5032458;28;20055;-69
2021/03/12 00:51:09;;;;;;;1.45;0.30;;;;;;;4.54;83.78;95730.16;5048589;28;20041;-69
2021/03/12 00:53:35;;;;;;;1.08;0.40;;;;;;;4.57;83.47;95734.97;5069907;28;20114;-69
2021/03/12 00:56:01;;;;;;;0.20;0.20;;;;;;;4.50;83.78;95734.56;5069657;28;20041;-68
2021/03/12 00:58:27;;;;;;;0.32;0.28;;;;;;;4.42;84.08;95709.06;5055406;28;20037;-69
2021/03/12 01:00:54;;;;;;;1.17;0.30;;;;;;;4.37;84.78;95707.25;5049530;28;20049;-69
2021/03/12 01:03:20;;;;;;;1.15;0.20;;;;;;;4.31;84.75;95727.28;5050225;28;20045;-69
2021/03/12 01:05:47;;;;;;;0.20;0.20;;;;;;;4.26;85.19;95738.13;5049565;28;20071;-69
2021/03/12 01:08:13;;;;;;;0.20;0.20;;;;;;;4.26;85.45;95729.25;5050193;28;20072;-71
2021/03/12 01:10:40;;;;;;;1.42;0.20;;;;;;;4.13;85.53;95709.25;5050687;28;20032;-70
2021/03/12 01:13:06;;;;;;;0.50;0.30;;;;;;;4.10;86.43;95693.66;5049336;28;20412;-71
2021/03/12 01:15:33;;;;;;;1.55;0.30;;;;;;;4.11;86.40;95692.56;5049933;28;20450;-70
2021/03/12 01:17:59;;;;;;;0.55;0.32;;;;;;;4.04;86.12;95673.28;5049413;28;20045;-71
2021/03/12 01:20:27;;;;;;;0.32;0.28;;;;;;;3.99;86.12;95670.66;5048188;28;20041;-71
2021/03/12 01:22:56;;;;;;;0.40;0.20;;;;;;;4.12;85.82;95648.34;5064682;28;20041;-70
2021/03/12 01:25:24;;;;;;;0.40;0.30;;;;;;;4.11;85.62;95673.69;5070180;28;20052;-70
2021/03/12 01:27:51;;;;;;;1.65;0.30;;;;;;;4.03;85.18;95671.69;5069080;28;20051;-70
2021/03/12 01:30:21;;;;;;;1.00;0.20;;;;;;;3.98;85.17;95658.28;5069830;28;20044;-70
2021/03/12 01:32:47;;;;;;;2.97;0.30;;;;;;;3.93;85.18;95657.28;5069526;28;20047;-71
2021/03/12 01:35:14;;;;;;;2.05;0.40;;;;;;;3.96;85.33;95660.47;5069559;28;20090;-72
2021/03/12 01:37:40;;;;;;;0.90;0.40;;;;;;;3.92;85.40;95655.66;5069702;28;20098;-71
2021/03/12 01:40:11;;;;;;;2.25;0.50;;;;;;;4.03;85.62;95666.28;5067755;28;20503;-70
2021/03/12 01:42:37;;;;;;;0.52;0.20;;;;;;;4.02;85.28;95676.28;5069989;28;20399;-69
2021/03/12 01:45:06;;;;;;;0.65;0.30;;;;;;;4.00;85.21;95683.03;5068721;28;20345;-70
2021/03/12 01:47:32;;;;;;;0.75;0.30;;;;;;;3.99;85.22;95694.91;5070302;28;20491;-69
2021/03/12 01:49:58;;;;;;;1.40;0.63;;;;;;;4.00;85.34;95707.28;5067082;28;20053;-69
2021/03/12 01:52:24;;;;;;;1.00;0.50;;;;;;;3.96;85.47;95692.78;5068956;28;20129;-70
2021/03/12 01:54:51;;;;;;;2.13;0.22;;;;;;;3.91;85.38;95699.88;5069129;28;20052;-71
2021/03/12 01:57:18;;;;;;;0.73;0.38;;;;;;;3.87;85.30;95666.53;5064273;28;20045;-70
2021/03/12 01:59:44;;;;;;;1.27;0.40;;;;;;;3.76;84.88;95673.16;5049447;28;20056;-72
2021/03/12 02:02:10;;;;;;;2.65;0.32;;;;;;;3.70;85.32;95676.97;5048949;28;20049;-72
2021/03/12 02:04:36;;;;;;;1.88;0.40;;;;;;;3.68;84.87;95676.47;5051371;28;20051;-72
2021/03/12 02:07:02;;;;;;;1.55;0.40;;;;;;;3.63;84.63;95679.25;5052240;28;20507;-73
2021/03/12 02:09:29;;;;;;;3.78;0.38;;;;;;;3.58;85.02;95665.84;5053618;28;20053;-71
2021/03/12 02:12:01;;;;;;;0.77;0.38;;;;;;;3.57;84.17;95688.47;5051008;28;20044;-71
2021/03/12 02:14:37;;;;;;;0.50;0.30;;;;;;;3.57;84.69;95680.41;5053299;28;20486;-71
2021/03/12 02:17:08;;;;;;;1.27;0.40;;;;;;;3.54;84.42;95670.22;5051929;28;20503;-72
2021/03/12 02:19:49;;;;;;;0.68;0.55;;;;;;;3.58;85.34;95657.78;5052573;28;20045;-71
2021/03/12 02:22:18;;;;;;;1.40;0.20;;;;;;;3.61;84.96;95676.06;5052507;28;20052;-71
2021/03/12 02:24:49;;;;;;;0.80;0.40;;;;;;;3.67;84.34;95675.69;5052403;28;20041;-71
2021/03/12 02:27:19;;;;;;;3.42;0.40;;;;;;;3.75;84.06;95693.06;5052533;28;20049;-71
2021/03/12 02:29:47;;;;;;;0.50;0.40;;;;;;;3.85;83.40;95687.53;5051884;28;20045;-71
2021/03/12 02:32:16;;;;;;;0.57;0.20;;;;;;;3.92;83.21;95682.59;5051330;28;20049;-71
2021/03/12 02:34:46;;;;;;;1.17;0.32;;;;;;;3.99;83.06;95684.13;5052091;28;20045;-71
2021/03/12 02:37:15;;;;;;;0.77;0.30;;;;;;;4.02;82.83;95680.84;5052264;28;20087;-71
2021/03/12 02:39:45;;;;;;;0.22;0.20;;;;;;;4.02;82.42;95714.00;5052448;28;20041;-70
2021/03/12 02:42:14;;;;;;;0.55;0.20;;;;;;;4.07;82.43;95715.78;5051612;28;20044;-70
2021/03/12 02:44:43;;;;;;;1.83;0.20;;;;;;;4.07;82.24;95697.75;5052566;28;20052;-70
2021/03/12 02:47:16;;;;;;;0.60;0.20;;;;;;;4.11;81.67;95700.63;5051169;28;20053;-70
2021/03/12 02:49:43;;;;;;;0.45;0.30;;;;;;;4.16;81.42;95719.44;5052462;28;20043;-70
2021/03/12 02:52:10;;;;;;;0.85;0.20;;;;;;;4.18;80.64;95709.19;5051292;28;20041;-71
2021/03/12 02:54:37;;;;;;;1.50;0.50;;;;;;;4.19;80.27;95705.38;5052941;28;20417;-70
2021/03/12 02:57:03;;;;;;;2.67;0.25;;;;;;;4.22;79.91;95691.31;5051109;28;20049;-70
2021/03/12 02:59:30;;;;;;;1.45;0.30;;;;;;;4.28;79.49;95692.84;5052382;28;20053;-70
2021/03/12 03:01:58;;;;;;;0.88;0.25;;;;;;;4.30;78.61;95698.72;5051778;28;20048;-70
2021/03/12 03:04:24;;;;;;;1.23;0.40;;;;;;;4.32;78.78;95701.94;5051492;28;20070;-71
2021/03/12 03:06:51;;;;;;;2.83;0.35;;;;;;;4.31;78.01;95694.94;5052057;28;20050;-70
2021/03/12 03:09:18;;;;;;;0.80;0.20;;;;;;;4.31;77.81;95700.34;5051010;28;20048;-71
2021/03/12 03:11:45;;;;;;;0.43;0.30;;;;;;;4.28;77.68;95700.94;5052459;28;20041;-68
2021/03/12 03:14:13;;;;;;;1.08;0.30;;;;;;;4.31;77.64;95705.72;5050305;28;20103;-69
2021/03/12 03:16:40;;;;;;;0.75;0.30;;;;;;;4.30;77.72;95714.91;5052375;28;20051;-69
2021/03/12 03:19:08;;;;;;;2.67;0.32;;;;;;;4.22;77.98;95718.25;5050127;28;20500;-68
2021/03/12 03:21:35;;;;;;;3.88;0.50;;;;;;;4.23;77.90;95711.78;5051914;28;20617;-69
2021/03/12 03:24:02;;;;;;;1.30;0.47;;;;;;;4.20;77.61;95715.06;5051219;28;20045;-69
2021/03/12 03:26:28;;;;;;;1.63;0.30;;;;;;;4.23;77.48;95717.19;5051247;28;20553;-68
2021/03/12 03:28:54;;;;;;;1.02;0.40;;;;;;;4.23;77.49;95727.97;5051147;28;20067;-69
2021/03/12 03:31:21;;;;;;;0.43;0.30;;;;;;;4.27;77.59;95734.34;5050889;28;20045;-69
2021/03/12 03:33:47;;;;;;;1.25;0.40;;;;;;;4.28;77.34;95738.66;5051936;28;20041;-69
2021/03/12 03:36:14;;;;;;;2.50;0.57;;;;;;;4.30;77.52;95747.25;5050354;28;20044;-69
2021/03/12 03:38:41;;;;;;;2.40;0.47;;;;;;;4.28;77.23;95749.44;5051767;28;20040;-68
2021/03/12 03:41:11;;;;;;;1.05;0.30;;;;;;;4.35;76.79;95751.78;5050334;28;20041;-69
2021/03/12 03:43:39;;;;;;;0.52;0.30;;;;;;;4.37;76.87;95758.44;5051598;28;20045;-68
2021/03/12 03:46:08;;;;;;;1.60;1.05;;;;;;;4.34;77.11;95755.56;5050381;28;20053;-69
2021/03/12 03:48:35;;;;;;;1.88;0.40;;;;;;;4.35;76.93;95766.03;5047693;28;20509;-69
2021/03/12 03:51:05;;;;;;;1.33;0.40;;;;;;;4.35;77.25;95768.75;5051010;28;20048;-69
2021/03/12 03:53:34;;;;;;;1.15;0.40;;;;;;;4.42;77.09;95768.38;5053974;28;20064;-69
2021/03/12 03:56:01;;;;;;;1.77;0.35;;;;;;;4.45;76.84;95771.28;5071472;28;20052;-69
2021/03/12 03:58:27;;;;;;;1.75;0.30;;;;;;;4.42;77.24;95784.53;5055163;28;20040;-69
2021/03/12 04:00:53;;;;;;;1.02;0.38;;;;;;;4.48;77.09;95777.97;5051652;28;20049;-68
2021/03/12 04:03:20;;;;;;;1.60;0.40;;;;;;;4.54;76.97;95789.47;5049953;28;20099;-69
2021/03/12 04:05:47;;;;;;;2.92;0.40;;;;;;;4.53;76.50;95782.47;5051400;28;20094;-69
2021/03/12 04:08:13;;;;;;;0.63;0.40;;;;;;;4.59;76.63;95786.69;5049850;28;20052;-70
2021/03/12 04:10:40;;;;;;;1.42;0.28;;;;;;;4.56;76.55;95796.19;5051130;28;20048;-69
2021/03/12 04:13:07;;;;;;;2.03;0.22;;;;;;;4.57;76.35;95795.09;5049972;28;20049;-69
2021/03/12 04:15:34;;;;;;;1.48;0.30;;;;;;;4.57;76.10;95802.38;5050598;28;20462;-68
2021/03/12 04:18:00;;;;;;;5.22;0.30;;;;;;;4.59;75.67;95802.88;5050549;28;20041;-68
2021/03/12 04:20:27;;;;;;;1.75;0.40;;;;;;;4.63;75.61;95807.41;5049658;28;20049;-69
2021/03/12 04:22:53;;;;;;;1.90;0.32;;;;;;;4.65;75.56;95820.63;5066444;28;20041;-69
2021/03/12 04:25:20;;;;;;;1.30;0.45;;;;;;;4.69;75.72;95825.09;5069428;28;20048;-69
2021/03/12 04:27:47;;;;;;;3.90;0.40;;;;;;;4.68;75.41;95817.31;5061047;28;20044;-68
2021/03/12 04:30:15;;;;;;;0.80;0.30;;;;;;;4.71;75.84;95819.44;5049436;28;20056;-69
2021/03/12 04:32:41;;;;;;;4.00;0.40;;;;;;;4.74;75.37;95826.91;5050750;28;20045;-68
2021/03/12 04:35:09;;;;;;;1.17;0.45;;;;;;;4.72;75.26;95824.53;5049739;28;20142;-70
2021/03/12 04:37:36;;;;;;;1.75;0.38;;;;;;;4.71;75.51;95828.31;5050287;28;20052;-68
2021/03/12 04:40:03;;;;;;;1.33;0.40;;;;;;;4.62;75.85;95835.47;5049971;28;20048;-70
2021/03/12 04:42:30;;;;;;;1.70;0.40;;;;;;;4.64;75.35;95827.06;5049850;28;20667;-70
2021/03/12 04:44:57;;;;;;;1.80;0.40;;;;;;;4.65;75.63;95844.88;5050662;28;20048;-69
2021/03/12 04:47:23;;;;;;;0.63;0.40;;;;;;;4.67;75.38;95848.06;5049007;28;20040;-69
2021/03/12 04:49:50;;;;;;;4.57;1.02;;;;;;;4.67;75.58;95842.69;5050610;28;20048;-69
2021/03/12 04:52:18;;;;;;;1.48;0.32;;;;;;;4.65;75.13;95844.88;5049220;28;20049;-69
2021/03/12 04:54:46;;;;;;;2.63;0.50;;;;;;;4.55;75.74;95861.22;5050522;28;20309;-68
2021/03/12 04:57:12;;;;;;;1.02;0.30;;;;;;;4.55;75.87;95853.13;5049060;28;20497;-69
2021/03/12 04:59:39;;;;;;;1.00;0.50;;;;;;;4.53;76.13;95863.38;5050221;28;20492;-69
2021/03/12 05:02:06;;;;;;;0.45;0.40;;;;;;;4.54;75.59;95852.31;5049568;28;20538;-69
2021/03/12 05:04:32;;;;;;;3.13;0.40;;;;;;;4.54;75.70;95864.97;5049695;28;20055;-69
2021/03/12 05:06:59;;;;;;;2.78;0.50;;;;;;;4.52;76.11;95861.78;5050508;28;20072;-69
2021/03/12 05:09:25;;;;;;;0.60;0.30;;;;;;;4.53;75.97;95863.38;5049126;28;20037;-69
2021/03/12 05:11:51;;;;;;;3.05;0.47;;;;;;;4.54;75.88;95864.97;5050623;28;20561;-69
2021/03/12 05:14:17;;;;;;;1.60;0.30;;;;;;;4.53;75.81;95876.84;5048955;28;20075;-69
2021/03/12 05:16:43;;;;;;;1.58;0.43;;;;;;;4.51;75.96;95865.56;5050536;28;20561;-69
2021/03/12 05:19:11;;;;;;;4.05;0.85;;;;;;;4.44;75.94;95861.34;5048679;28;20045;-69
2021/03/12 05:21:37;;;;;;;0.75;0.45;;;;;;;4.45;76.45;95862.16;5050254;28;20045;-69
2021/03/12 05:24:03;;;;;;;0.90;0.40;;;;;;;4.40;76.28;95852.22;5049255;28;20041;-70
2021/03/12 05:26:30;;;;;;;3.97;0.70;;;;;;;4.38;76.40;95867.88;5050437;28;20549;-69
2021/03/12 05:28:57;;;;;;;2.67;0.60;;;;;;;4.32;76.66;95863.66;5049885;28;20107;-69
2021/03/12 05:31:24;;;;;;;1.15;0.40;;;;;;;4.33;76.69;95865.28;5049031;28;20045;-69
2021/03/12 05:33:51;;;;;;;0.40;0.40;;;;;;;4.31;76.85;95870.13;5050387;28;20052;-69
2021/03/12 05:36:18;;;;;;;1.88;0.50;;;;;;;4.32;77.00;95869.03;5049490;28;20099;-69
2021/03/12 05:38:44;;;;;;;2.72;0.88;;;;;;;4.32;76.68;95858.25;5052237;28;20400;-69
2021/03/12 05:41:10;;;;;;;4.57;0.60;;;;;;;4.38;76.44;95867.88;5052539;28;20124;-69
2021/03/12 05:43:36;;;;;;;0.30;0.30;;;;;;;4.49;76.29;95882.03;5053894;28;20068;-69
2021/03/12 05:46:03;;;;;;;4.35;0.60;;;;;;;4.51;75.45;95885.25;5052711;28;20048;-70
2021/03/12 05:48:29;;;;;;;1.67;0.70;;;;;;;4.55;75.53;95877.38;5053355;28;20052;-69
2021/03/12 05:50:58;;;;;;;3.85;0.63;;;;;;;4.57;74.89;95885.97;5053063;28;20568;-69
2021/03/12 05:53:25;;;;;;;3.65;0.45;;;;;;;4.63;74.83;95890.19;5052538;28;20056;-69
2021/03/12 05:55:52;;;;;;;0.95;0.35;;;;;;;4.58;74.66;95882.19;5053408;28;20516;-69
2021/03/12 05:58:18;;;;;;;2.03;0.60;;;;;;;4.65;74.56;95898.81;5051940;28;20048;-69
2021/03/12 06:00:44;;;;;;;1.45;0.50;;;;;;;4.70;74.24;95902.25;5053669;28;20051;-69
2021/03/12 06:03:10;;;;;;;1.25;0.50;;;;;;;4.66;74.22;95905.81;5052032;28;20041;-70
2021/03/12 06:05:36;;;;;;;1.35;0.50;;;;;;;4.65;74.21;95909.59;5053681;28;20068;-69
2021/03/12 06:08:02;;;;;;;2.35;0.52;;;;;;;4.72;73.66;95910.03;5052084;28;20041;-70
2021/03/12 06:10:29;;;;;;;2.05;0.50;;;;;;;4.71;73.44;95914.63;5053336;28;20071;-69
2021/03/12 06:12:55;;;;;;;1.08;0.50;;;;;;;4.70;72.33;95923.03;5052630;28;20045;-69
2021/03/12 06:15:32;;;;;;;1.58;0.50;;;;;;;4.81;72.43;95923.69;5052450;28;24186;-69
2021/03/12 06:17:58;;;;;;;3.80;0.57;;;;;;;4.81;72.44;95923.69;5052829;28;20127;-69
2021/03/12 06:20:24;;;;;;;2.90;0.70;;;;;;;4.90;72.30;95938.09;5051888;28;20108;-69
2021/03/12 06:22:52;;;;;;;1.77;0.65;;;;;;;4.86;71.95;95937.91;5053159;28;20127;-69
2021/03/12 06:25:20;;;;;;;1.98;0.40;;;;;;;4.87;71.96;95944.91;5051545;28;20048;-69
2021/03/12 06:27:49;;;;;;;4.05;0.60;;;;;;;4.93;72.52;95949.13;5053106;28;20044;-69
2021/03/12 06:30:16;;;;;;;1.67;0.38;;;;;;;4.95;71.87;95957.72;5051830;28;20049;-69
2021/03/12 06:32:45;;;;;;;1.63;0.52;;;;;;;5.03;71.73;95953.56;5052706;28;20049;-69
2021/03/12 06:35:14;;;;;;;2.80;0.50;;;;;;;5.07;71.69;95970.00;5051975;28;20412;-69
2021/03/12 06:37:41;;;;;;;2.63;0.60;;;;;;;4.97;71.66;95969.03;5052366;28;20099;-69
2021/03/12 06:40:18;;;;;;;4.28;0.45;;;;;;;5.01;71.52;95966.53;5051976;28;20044;-69
2021/03/12 06:43:02;;;;;;;1.38;0.40;;;;;;;5.07;71.30;95978.09;5051936;28;20047;-68
2021/03/12 06:45:29;;;;;;;1.52;0.50;;;;;;;5.09;70.91;95984.78;5052868;28;20045;-70
2021/03/12 06:48:13;;;;;;;1.90;0.45;;;;;;;5.05;70.48;95974.84;5051541;28;20059;-68
2021/03/12 06:50:44;;;;;;;2.75;0.40;;;;;;;4.93;70.47;95976.09;5051422;28;20099;-67
2021/03/12 06:53:28;;;;;;;1.48;0.57;;;;;;;5.01;71.42;95982.72;5051480;28;20044;-69
2021/03/12 06:55:55;;;;;;;3.08;0.77;;;;;;;5.09;71.36;95983.97;5051540;28;20072;-68
2021/03/12 06:58:22;;;;;;;1.15;0.55;;;;;;;5.15;70.38;95988.22;5052019;28;20060;-69
2021/03/12 07:00:49;;;;;;;2.20;0.70;;;;;;;5.25;70.53;95993.47;5051588;28;20072;-68
2021/03/12 07:03:27;;;;;;;2.47;0.60;;;;;;;5.31;69.46;95992.28;5052189;28;20495;-68
2021/03/12 07:06:06;;;;;;;1.25;0.77;;;;;;;5.20;69.13;96001.63;5051624;28;20077;-68
2021/03/12 07:08:38;;;;;;;2.60;0.60;;;;;;;5.16;69.62;96006.00;5051817;28;20385;-69
2021/03/12 07:11:21;;;;;;;3.53;0.40;;;;;;;5.19;70.12;96010.84;5051584;28;20132;-69
2021/03/12 07:13:48;;;;;;;0.93;0.33;;;;;;;5.13;69.82;96012.81;5051470;28;20391;-68
2021/03/12 07:16:14;;;;;;;2.83;0.60;;;;;;;5.15;70.04;96015.19;5051897;28;20789;-71
2021/03/12 07:18:41;;;;;;;1.50;0.45;;;;;;;5.20;70.20;96020.53;5048994;28;20503;-71
2021/03/12 07:21:07;;;;;;;0.38;0.30;;;;;;;5.05;68.93;96018.84;5051442;28;20044;-71
2021/03/12 07:23:37;;;;;;;2.22;0.50;;;;;;;5.11;69.56;96020.38;5071142;28;20056;-70
2021/03/12 07:26:05;;;;;;;1.20;0.40;;;;;;;5.12;69.24;96029.28;5071495;28;20049;-72
2021/03/12 07:28:33;;;;;;;2.00;0.70;;;;;;;5.06;69.50;96033.13;5055798;28;20040;-71
2021/03/12 07:31:03;;;;;;;1.48;0.43;;;;;;;5.12;69.67;96032.78;5051398;28;20049;-70
2021/03/12 07:33:33;;;;;;;2.78;0.50;;;;;;;5.22;70.68;96048.06;5051451;28;20119;-70
2021/03/12 07:36:01;;;;;;;3.33;0.50;;;;;;;5.14;69.88;96046.78;5050931;28;20508;-71
2021/03/12 07:38:31;;;;;;;0.60;0.50;;;;;;;5.23;70.91;96049.66;5051524;28;20048;-72
2021/03/12 07:40:57;;;;;;;3.28;1.25;;;;;;;5.20;70.92;96055.63;5050541;28;20048;-72
2021/03/12 07:43:24;;;;;;;5.55;0.60;;;;;;;5.27;71.46;96045.25;5051380;28;20037;-71
2021/03/12 07:45:50;;;;;;;2.40;0.57;;;;;;;5.37;69.77;96053.22;5050460;28;20519;-71
2021/03/12 07:48:17;;;;;;;1.98;0.47;;;;;;;5.30;69.53;96049.28;5050853;28;20048;-72
2021/03/12 07:50:43;;;;;;;2.83;0.60;;;;;;;5.23;69.83;96049.66;5050718;28;20049;-72
2021/03/12 07:53:10;;;;;;;1.90;0.55;;;;;;;5.39;70.32;96048.34;5068120;28;20049;-71
2021/03/12 07:55:59;;;;;;;2.78;0.50;;;;;;;5.60;69.65;96064.25;5070864;28;20052;-72
2021/03/12 07:58:55;;;;;;;2.95;0.60;;;;;;;5.79;70.41;96065.00;5039473;28;20041;-71
2021/03/12 08:01:22;;;;;;;1.95;0.47;;;;;;;5.73;67.12;96066.19;5030738;28;20045;-70
2021/03/12 08:03:51;;;;;;;2.28;0.45;;;;;;;5.83;67.80;96063.34;5030436;28;20052;-71
2021/03/12 08:06:38;;;;;;;1.42;0.68;;;;;;;5.78;66.28;96060.72;5030339;28;20115;-71
2021/03/12 08:09:30;;;;;;;2.40;0.70;;;;;;;5.64;67.26;96066.06;5028350;28;20386;-72
2021/03/12 08:11:56;;;;;;;4.18;0.70;;;;;;;5.76;66.70;96079.13;5030212;28;20103;-71
2021/03/12 08:14:22;;;;;;;2.30;1.42;;;;;;;5.95;66.38;96089.94;5030695;28;20058;-71
2021/03/12 08:17:17;;;;;;;3.45;0.50;;;;;;;5.88;65.90;96086.78;5032282;28;20116;-71
2021/03/12 08:19:48;;;;;;;2.92;0.70;;;;;;;5.73;66.95;96088.59;5050414;28;20097;-71
2021/03/12 08:22:43;;;;;;;1.55;0.50;;;;;;;5.80;67.08;96090.97;5060111;28;20140;-72
2021/03/12 08:25:11;;;;;;;7.47;0.90;;;;;;;5.75;66.25;96091.03;5069278;28;20040;-72
2021/03/12 08:27:39;;;;;;;5.32;1.00;;;;;;;5.79;65.72;96094.72;5062952;28;20049;-72
2021/03/12 08:30:07;;;;;;;3.80;0.80;;;;;;;6.23;65.13;96096.25;5049495;28;20048;-73
2021/03/12 08:32:42;;;;;;;5.93;0.50;;;;;;;7.02;63.08;96093.44;5050624;28;20056;-73
2021/03/12 08:35:38;;;;;;;2.10;0.63;;;;;;;7.68;61.19;96093.94;5049426;28;20048;-72
2021/03/12 08:38:26;;;;;;;4.10;0.60;;;;;;;8.32;59.86;96091.88;5049379;28;20130;-72
2021/03/12 08:40:58;;;;;;;1.63;0.47;;;;;;;8.35;57.29;96085.81;5050617;28;20455;-73
2021/03/12 08:43:25;;;;;;;2.88;0.60;;;;;;;8.64;55.36;96071.81;5049327;28;20055;-72
2021/03/12 08:45:53;;;;;;;4.97;0.80;;;;;;;8.58;54.98;96083.91;5050725;28;20072;-72
2021/03/12 08:48:22;;;;;;;4.15;1.42;;;;;;;8.80;55.79;96074.91;5049297;28;20052;-72
2021/03/12 08:50:52;;;;;;;4.40;0.70;;;;;;;8.80;56.09;96070.28;5050183;28;20098;-72
2021/03/12 08:53:19;;;;;;;5.10;0.80;;;;;;;8.58;54.13;96070.34;5068553;28;20048;-71
2021/03/12 08:55:48;;;;;;;1.85;0.52;;;;;;;8.59;56.07;96070.03;5069857;28;20045;-72
2021/03/12 08:58:17;;;;;;;3.08;0.70;;;;;;;9.26;55.36;96065.50;5056635;28;20056;-72
2021/03/12 09:00:44;;;;;;;3.88;0.60;;;;;;;9.34;54.08;96067.41;5049414;28;20121;-72
2021/03/12 09:03:18;;;;;;;8.00;0.90;;;;;;;9.09;54.29;96072.47;5049953;28;20049;-73
2021/03/12 09:05:45;;;;;;;2.38;0.70;;;;;;;8.81;54.92;96065.66;5049579;28;20110;-72
2021/03/12 09:08:13;;;;;;;1.85;0.80;;;;;;;8.74;54.98;96066.09;5049662;28;20068;-73
2021/03/12 09:10:40;;;;;;;3.80;0.70;;;;;;;8.26;55.04;96057.84;5049766;28;20075;-73
2021/03/12 09:13:13;;;;;;;2.67;0.60;;;;;;;8.16;54.50;96049.97;5050626;28;20052;-73
2021/03/12 09:15:41;;;;;;;3.45;0.60;;;;;;;7.92;55.45;96055.69;5053882;28;20037;-73
2021/03/12 09:18:07;;;;;;;2.80;0.60;;;;;;;7.85;55.84;96056.94;5053020;28;20044;-72
2021/03/12 09:20:34;;;;;;;3.28;0.75;;;;;;;7.88;55.29;96055.50;5054269;28;20052;-72
2021/03/12 09:23:00;;;;;;;2.35;0.75;;;;;;;8.20;55.86;96061.81;5053378;28;20044;-72
2021/03/12 09:25:27;;;;;;;3.35;0.68;;;;;;;8.17;57.38;96051.56;5054002;28;20044;-72
2021/03/12 09:27:58;;;;;;;3.33;0.60;;;;;;;7.97;55.37;96063.72;5053068;28;20049;-73
2021/03/12 09:30:25;;;;;;;4.75;0.70;;;;;;;7.79;58.08;96060.09;5053458;28;20041;-74
2021/03/12 09:32:51;;;;;;;2.33;0.75;;;;;;;7.63;56.22;96050.72;5053332;28;20045;-74
2021/03/12 09:35:19;;;;;;;3.65;0.65;;;;;;;7.34;56.56;96043.75;5053167;28;20144;-74
2021/03/12 09:37:45;;;;;;;5.30;0.95;;;;;;;7.36;58.46;96043.44;5033578;28;20118;-74
2021/03/12 09:40:30;;;;;;;3.00;0.73;;;;;;;7.47;58.05;96045.63;5032821;28;20488;-74
2021/03/12 09:42:57;;;;;;;2.70;0.70;;;;;;;7.66;58.40;96047.38;5034084;28;20042;-74
2021/03/12 09:45:24;;;;;;;3.92;0.77;;;;;;;7.98;57.92;96043.63;5033602;28;20049;-73
2021/03/12 09:47:51;;;;;;;2.75;0.60;;;;;;;8.07;56.41;96050.72;5044534;28;20055;-74
2021/03/12 09:50:19;;;;;;;2.70;0.70;;;;;;;8.21;54.32;96047.13;5052259;28;20041;-74
2021/03/12 09:52:45;;;;;;;3.30;0.68;;;;;;;8.26;53.80;96028.81;5068485;28;20048;-74
2021/03/12 09:55:12;;;;;;;4.90;0.88;;;;;;;8.43;53.18;96030.84;5073274;28;20587;-74
2021/03/12 09:57:39;;;;;;;2.70;0.60;;;;;;;9.21;54.62;96031.13;5065265;28;20686;-73
2021/03/12 10:00:07;;;;;;;1.33;0.60;;;;;;;9.92;51.40;96028.91;5052414;28;20140;-75
2021/03/12 10:02:33;;;;;;;4.97;0.98;;;;;;;9.65;49.08;96024.59;5053154;28;20044;-73
2021/03/12 10:05:00;;;;;;;2.47;0.60;;;;;;;9.36;51.69;96021.72;5053322;28;20045;-74
2021/03/12 10:07:37;;;;;;;4.78;0.80;;;;;;;9.64;51.77;96022.19;5052222;28;20106;-74
2021/03/12 10:10:13;;;;;;;4.20;0.85;;;;;;;9.34;51.09;96021.22;5053284;28;20072;-74
2021/03/12 10:12:42;;;;;;;4.32;0.75;;;;;;;9.11;50.73;96020.53;5052571;28;20049;-74
2021/03/12 10:15:10;;;;;;;2.65;0.82;;;;;;;9.33;50.31;96027.78;5052687;28;20106;-74
2021/03/12 10:17:37;;;;;;;2.72;0.65;;;;;;;9.27;51.06;96029.84;5051506;28;20051;-73
2021/03/12 10:20:05;;;;;;;3.20;0.65;;;;;;;9.10;50.93;96025.19;5052313;28;20049;-73
2021/03/12 10:22:33;;;;;;;2.97;0.60;;;;;;;8.73;50.80;96002.06;5065601;28;20051;-73
2021/03/12 10:25:06;;;;;;;2.28;0.60;;;;;;;8.44;52.70;96012.66;5071170;28;20044;-74
2021/03/12 10:27:38;;;;;;;3.90;1.02;;;;;;;8.55;52.87;96012.06;5065873;28;20083;-74
2021/03/12 10:30:09;;;;;;;3.05;0.75;;;;;;;8.72;50.56;96013.22;5051762;28;20055;-74
2021/03/12 10:32:40;;;;;;;4.05;0.70;;;;;;;8.65;51.92;96007.47;5053047;28;20126;-74
2021/03/12 10:35:19;;;;;;;3.90;0.70;;;;;;;8.50;52.21;96006.75;5051973;28;20473;-74
2021/03/12 10:37:45;;;;;;;1.70;0.63;;;;;;;8.36;52.79;95995.22;5052495;28;20045;-73
2021/03/12 10:40:13;;;;;;;3.15;0.60;;;;;;;8.37;53.05;96002.25;5052203;28;20053;-72
2021/03/12 10:42:39;;;;;;;1.83;0.70;;;;;;;8.20;53.04;96002.94;5052304;28;20488;-73
2021/03/12 10:45:07;;;;;;;3.15;0.77;;;;;;;8.05;53.74;96001.41;5052297;28;20558;-73
2021/03/12 10:47:34;;;;;;;2.47;0.60;;;;;;;8.44;54.23;96005.31;5051744;28;20183;-74
2021/03/12 10:50:18;;;;;;;3.65;0.90;;;;;;;8.55;53.91;95998.47;5052994;28;20041;-73
2021/03/12 10:52:44;;;;;;;;;;;;;;;8.66;54.75;96003.63;5052246;28;20037;-74
2021/03/12 10:55:11;;;;;;;2.42;0.90;;;;;;;8.48;52.09;95987.28;5051952;28;20328;-72
2021/03/12 10:57:40;;;;;;;4.85;0.88;;;;;;;8.49;55.10;95997.03;5051855;28;20044;-71
2021/03/12 11:00:15;;;;;;;4.60;0.90;;;;;;;8.44;54.40;95991.75;5048136;28;20053;-72
2021/03/12 11:02:42;;;;;;;3.80;0.75;;;;;;;8.26;54.28;95992.75;5032297;28;20076;-72
2021/03/12 11:05:10;;;;;;;4.20;0.80;;;;;;;8.29;53.41;95986.69;5030744;28;20045;-72
2021/03/12 11:07:36;;;;;;;3.22;0.70;;;;;;;8.17;53.87;95986.47;5032382;28;20516;-72
2021/03/12 11:10:03;;;;;;;1.35;0.50;;;;;;;8.17;53.87;95970.19;5031211;28;20070;-72
2021/03/12 11:12:36;;;;;;;4.53;0.93;;;;;;;8.23;53.77;95974.38;5030869;28;20046;-72
2021/03/12 11:15:04;;;;;;;;;;;;;;;8.43;54.86;95970.34;5031442;28;20049;-72
2021/03/12 11:17:30;;;;;;;3.08;0.90;;;;;;;8.63;54.05;95965.16;5039971;28;19924;-72
2021/03/12 11:19:56;;;;;;;2.75;0.90;;;;;;;8.73;52.74;95958.66;5051586;28;20045;-72
2021/03/12 11:22:22;;;;;;;3.00;0.77;;;;;;;8.86;51.54;95954.19;5062518;28;20047;-72
2021/03/12 11:24:48;;;;;;;1.88;0.60;;;;;;;8.98;51.33;95951.69;5071640;28;20479;-72
2021/03/12 11:27:15;;;;;;;1.98;0.90;;;;;;;9.13;50.86;95951.22;5070003;28;20044;-72
2021/03/12 11:29:41;;;;;;;4.13;0.93;;;;;;;9.09;51.34;95939.38;5071852;28;20044;-72
2021/03/12 11:32:09;;;;;;;4.07;0.80;;;;;;;9.35;50.03;95949.47;5070181;28;20049;-72
2021/03/12 11:34:35;;;;;;;5.47;0.73;;;;;;;9.37;48.09;95947.22;5071870;28;20041;-71
2021/03/12 11:37:01;;;;;;;2.38;0.80;;;;;;;9.28;47.83;95949.94;5070087;28;20044;-71
2021/03/12 11:39:27;;;;;;;2.60;0.65;;;;;;;9.50;48.22;95950.88;5071392;28;20488;-71
2021/03/12 11:41:53;;;;;;;2.40;0.70;;;;;;;9.55;48.31;95943.38;5070784;28;20047;-71
2021/03/12 11:44:19;;;;;;;2.88;0.77;;;;;;;9.45;47.70;95943.72;5038326;28;20131;-71
2021/03/12 11:46:45;;;;;;;2.88;0.70;;;;;;;9.54;46.54;95930.09;5032944;28;20501;-72
2021/03/12 11:49:12;;;;;;;7.32;1.00;;;;;;;9.68;46.74;95942.41;5050208;28;20049;-72